sensor_id;sensor_type;location;lat;lon;timestamp;P1;P2;P0
49656;PMS5003;71194;38.900;-77.124;2023-08-17T00:02:21;0;0;
49656;PMS5003;71194;38.900;-77.124;2023-08-17T00:04:49;1;1;
49656;PMS5003;71194;38.900;-77.124;2023-08-17T00:07:17;4;2;
49656;PMS5003;71194;38.900;-77.124;2023-08-17T00:09:45;1;1;
49656;PMS5003;71194;38.900;-77.124;2023-08-17T00:12:13;3;3;
49656;PMS5003;71194;38.900;-77.124;2023-08-17T00:14:41;2;2;
49656;PMS5003;71194;38.900;-77.124;2023-08-17T00:17:08;1;1;
49656;PMS5003;71194;38.900;-77.124;2023-08-17T00:19:36;1;1;
49656;PMS5003;71194;38.900;-77.124;2023-08-17T00:22:04;1;1;
49656;PMS5003;71194;38.900;-77.124;2023-08-17T00:24:32;1;1;
49656;PMS5003;71194;38.900;-77.124;2023-08-17T00:27:00;4;2;
49656;PMS5003;71194;38.900;-77.124;2023-08-17T00:29:28;2;2;
49656;PMS5003;71194;38.900;-77.124;2023-08-17T00:31:56;2;2;
49656;PMS5003;71194;38.900;-77.124;2023-08-17T00:34:24;2;2;
49656;PMS5003;71194;38.900;-77.124;2023-08-17T00:36:52;2;2;
49656;PMS5003;71194;38.900;-77.124;2023-08-17T00:39:20;2;2;
49656;PMS5003;71194;38.900;-77.124;2023-08-17T00:41:47;3;3;
49656;PMS5003;71194;38.900;-77.124;2023-08-17T00:44:15;3;3;
49656;PMS5003;71194;38.900;-77.124;2023-08-17T00:46:44;3;3;
49656;PMS5003;71194;38.900;-77.124;2023-08-17T00:49:12;5;4;
49656;PMS5003;71194;38.900;-77.124;2023-08-17T00:51:39;3;3;
49656;PMS5003;71194;38.900;-77.124;2023-08-17T00:54:07;1;1;
49656;PMS5003;71194;38.900;-77.124;2023-08-17T00:56:37;5;5;
49656;PMS5003;71194;38.900;-77.124;2023-08-17T00:59:05;3;2;
49656;PMS5003;71194;38.900;-77.124;2023-08-17T01:01:33;5;3;
49656;PMS5003;71194;38.900;-77.124;2023-08-17T01:04:01;4;4;
49656;PMS5003;71194;38.900;-77.124;2023-08-17T01:06:29;5;4;
49656;PMS5003;71194;38.900;-77.124;2023-08-17T01:08:57;3;3;
49656;PMS5003;71194;38.900;-77.124;2023-08-17T01:11:27;3;3;
49656;PMS5003;71194;38.900;-77.124;2023-08-17T01:14:00;4;3;
49656;PMS5003;71194;38.900;-77.124;2023-08-17T01:16:33;2;2;
49656;PMS5003;71194;38.900;-77.124;2023-08-17T01:19:06;2;2;
49656;PMS5003;71194;38.900;-77.124;2023-08-17T01:21:37;3;2;
49656;PMS5003;71194;38.900;-77.124;2023-08-17T01:24:08;2;2;
49656;PMS5003;71194;38.900;-77.124;2023-08-17T01:26:37;2;2;
49656;PMS5003;71194;38.900;-77.124;2023-08-17T01:29:06;2;2;
49656;PMS5003;71194;38.900;-77.124;2023-08-17T01:31:36;2;2;
49656;PMS5003;71194;38.900;-77.124;2023-08-17T01:34:10;1;1;
49656;PMS5003;71194;38.900;-77.124;2023-08-17T01:36:46;1;1;
49656;PMS5003;71194;38.900;-77.124;2023-08-17T01:39:20;2;2;
49656;PMS5003;71194;38.900;-77.124;2023-08-17T01:41:53;3;3;
49656;PMS5003;71194;38.900;-77.124;2023-08-17T01:44:23;3;1;
49656;PMS5003;71194;38.900;-77.124;2023-08-17T01:46:51;4;3;
49656;PMS5003;71194;38.900;-77.124;2023-08-17T01:49:19;2;2;
49656;PMS5003;71194;38.900;-77.124;2023-08-17T01:51:47;1;1;
49656;PMS5003;71194;38.900;-77.124;2023-08-17T01:54:15;1;1;
49656;PMS5003;71194;38.900;-77.124;2023-08-17T01:56:43;2;2;
49656;PMS5003;71194;38.900;-77.124;2023-08-17T01:59:11;0;0;
49656;PMS5003;71194;38.900;-77.124;2023-08-17T02:01:39;1;1;
49656;PMS5003;71194;38.900;-77.124;2023-08-17T02:04:07;1;1;
49656;PMS5003;71194;38.900;-77.124;2023-08-17T02:06:35;3;3;
49656;PMS5003;71194;38.900;-77.124;2023-08-17T02:09:03;2;2;
49656;PMS5003;71194;38.900;-77.124;2023-08-17T02:11:31;2;2;
49656;PMS5003;71194;38.900;-77.124;2023-08-17T02:13:59;1;1;
49656;PMS5003;71194;38.900;-77.124;2023-08-17T02:16:26;2;2;
49656;PMS5003;71194;38.900;-77.124;2023-08-17T02:18:54;2;2;
49656;PMS5003;71194;38.900;-77.124;2023-08-17T02:21:23;3;2;
49656;PMS5003;71194;38.900;-77.124;2023-08-17T02:23:50;1;1;
49656;PMS5003;71194;38.900;-77.124;2023-08-17T02:26:19;1;1;
49656;PMS5003;71194;38.900;-77.124;2023-08-17T02:28:46;3;3;
49656;PMS5003;71194;38.900;-77.124;2023-08-17T02:31:14;2;2;
49656;PMS5003;71194;38.900;-77.124;2023-08-17T02:33:42;2;2;
49656;PMS5003;71194;38.900;-77.124;2023-08-17T02:36:10;1;1;
49656;PMS5003;71194;38.900;-77.124;2023-08-17T02:38:38;3;3;
49656;PMS5003;71194;38.900;-77.124;2023-08-17T02:41:06;2;2;
49656;PMS5003;71194;38.900;-77.124;2023-08-17T02:43:34;0;0;
49656;PMS5003;71194;38.900;-77.124;2023-08-17T02:46:02;2;2;
49656;PMS5003;71194;38.900;-77.124;2023-08-17T02:48:30;3;3;
49656;PMS5003;71194;38.900;-77.124;2023-08-17T02:50:58;1;1;
49656;PMS5003;71194;38.900;-77.124;2023-08-17T02:53:26;2;2;
49656;PMS5003;71194;38.900;-77.124;2023-08-17T02:55:54;2;2;
49656;PMS5003;71194;38.900;-77.124;2023-08-17T02:58:22;1;1;
49656;PMS5003;71194;38.900;-77.124;2023-08-17T03:00:51;3;3;
49656;PMS5003;71194;38.900;-77.124;2023-08-17T03:03:18;2;2;
49656;PMS5003;71194;38.900;-77.124;2023-08-17T03:05:46;2;2;
49656;PMS5003;71194;38.900;-77.124;2023-08-17T03:08:14;2;2;
49656;PMS5003;71194;38.900;-77.124;2023-08-17T03:10:42;2;2;
49656;PMS5003;71194;38.900;-77.124;2023-08-17T03:13:10;2;2;
49656;PMS5003;71194;38.900;-77.124;2023-08-17T03:15:38;5;3;
49656;PMS5003;71194;38.900;-77.124;2023-08-17T03:18:06;2;2;
49656;PMS5003;71194;38.900;-77.124;2023-08-17T03:20:34;3;2;
49656;PMS5003;71194;38.900;-77.124;2023-08-17T03:23:02;4;4;
49656;PMS5003;71194;38.900;-77.124;2023-08-17T03:25:30;5;4;
49656;PMS5003;71194;38.900;-77.124;2023-08-17T03:27:58;2;2;
49656;PMS5003;71194;38.900;-77.124;2023-08-17T03:30:26;2;2;
49656;PMS5003;71194;38.900;-77.124;2023-08-17T03:32:54;4;2;
49656;PMS5003;71194;38.900;-77.124;2023-08-17T03:35:22;3;3;
49656;PMS5003;71194;38.900;-77.124;2023-08-17T03:37:50;2;2;
49656;PMS5003;71194;38.900;-77.124;2023-08-17T03:40:18;3;3;
49656;PMS5003;71194;38.900;-77.124;2023-08-17T03:42:46;4;3;
49656;PMS5003;71194;38.900;-77.124;2023-08-17T03:45:13;2;2;
49656;PMS5003;71194;38.900;-77.124;2023-08-17T03:47:42;2;2;
49656;PMS5003;71194;38.900;-77.124;2023-08-17T03:50:10;1;1;
49656;PMS5003;71194;38.900;-77.124;2023-08-17T03:52:38;1;1;
49656;PMS5003;71194;38.900;-77.124;2023-08-17T03:55:06;3;3;
49656;PMS5003;71194;38.900;-77.124;2023-08-17T03:57:34;2;2;
49656;PMS5003;71194;38.900;-77.124;2023-08-17T04:00:03;3;3;
49656;PMS5003;71194;38.900;-77.124;2023-08-17T04:02:32;3;2;
49656;PMS5003;71194;38.900;-77.124;2023-08-17T04:05:00;3;3;
49656;PMS5003;71194;38.900;-77.124;2023-08-17T04:07:28;4;4;
49656;PMS5003;71194;38.900;-77.124;2023-08-17T04:09:56;3;3;
49656;PMS5003;71194;38.900;-77.124;2023-08-17T04:12:23;3;2;
49656;PMS5003;71194;38.900;-77.124;2023-08-17T04:14:51;2;2;
49656;PMS5003;71194;38.900;-77.124;2023-08-17T04:17:19;0;0;
49656;PMS5003;71194;38.900;-77.124;2023-08-17T04:19:47;4;3;
49656;PMS5003;71194;38.900;-77.124;2023-08-17T04:22:15;1;1;
49656;PMS5003;71194;38.900;-77.124;2023-08-17T04:24:43;1;1;
49656;PMS5003;71194;38.900;-77.124;2023-08-17T04:27:11;2;2;
49656;PMS5003;71194;38.900;-77.124;2023-08-17T04:29:39;2;2;
49656;PMS5003;71194;38.900;-77.124;2023-08-17T04:32:07;3;3;
49656;PMS5003;71194;38.900;-77.124;2023-08-17T04:34:41;4;3;
49656;PMS5003;71194;38.900;-77.124;2023-08-17T04:37:09;3;3;
49656;PMS5003;71194;38.900;-77.124;2023-08-17T04:39:36;3;3;
49656;PMS5003;71194;38.900;-77.124;2023-08-17T04:42:05;2;2;
49656;PMS5003;71194;38.900;-77.124;2023-08-17T04:44:32;2;2;
49656;PMS5003;71194;38.900;-77.124;2023-08-17T04:47:00;3;3;
49656;PMS5003;71194;38.900;-77.124;2023-08-17T04:49:29;1;1;
49656;PMS5003;71194;38.900;-77.124;2023-08-17T04:51:56;3;2;
49656;PMS5003;71194;38.900;-77.124;2023-08-17T04:54:25;0;0;
49656;PMS5003;71194;38.900;-77.124;2023-08-17T04:56:53;3;3;
49656;PMS5003;71194;38.900;-77.124;2023-08-17T04:59:20;1;1;
49656;PMS5003;71194;38.900;-77.124;2023-08-17T05:01:48;2;0;
49656;PMS5003;71194;38.900;-77.124;2023-08-17T05:04:16;6;3;
49656;PMS5003;71194;38.900;-77.124;2023-08-17T05:06:44;2;2;
49656;PMS5003;71194;38.900;-77.124;2023-08-17T05:09:12;2;2;
49656;PMS5003;71194;38.900;-77.124;2023-08-17T05:11:40;2;2;
49656;PMS5003;71194;38.900;-77.124;2023-08-17T05:14:08;3;3;
49656;PMS5003;71194;38.900;-77.124;2023-08-17T05:16:36;3;3;
49656;PMS5003;71194;38.900;-77.124;2023-08-17T05:19:04;3;3;
49656;PMS5003;71194;38.900;-77.124;2023-08-17T05:21:32;4;3;
49656;PMS5003;71194;38.900;-77.124;2023-08-17T05:24:01;2;2;
49656;PMS5003;71194;38.900;-77.124;2023-08-17T05:26:29;3;3;
49656;PMS5003;71194;38.900;-77.124;2023-08-17T05:28:58;2;2;
49656;PMS5003;71194;38.900;-77.124;2023-08-17T05:31:26;4;4;
49656;PMS5003;71194;38.900;-77.124;2023-08-17T05:33:54;4;2;
49656;PMS5003;71194;38.900;-77.124;2023-08-17T05:36:22;2;2;
49656;PMS5003;71194;38.900;-77.124;2023-08-17T05:38:50;2;2;
49656;PMS5003;71194;38.900;-77.124;2023-08-17T05:41:18;3;3;
49656;PMS5003;71194;38.900;-77.124;2023-08-17T05:43:46;2;2;
49656;PMS5003;71194;38.900;-77.124;2023-08-17T05:46:15;2;2;
49656;PMS5003;71194;38.900;-77.124;2023-08-17T05:48:42;2;2;
49656;PMS5003;71194;38.900;-77.124;2023-08-17T05:51:10;4;3;
49656;PMS5003;71194;38.900;-77.124;2023-08-17T05:53:38;5;3;
49656;PMS5003;71194;38.900;-77.124;2023-08-17T05:56:07;2;2;
49656;PMS5003;71194;38.900;-77.124;2023-08-17T05:58:35;2;2;
49656;PMS5003;71194;38.900;-77.124;2023-08-17T06:01:05;4;4;
49656;PMS5003;71194;38.900;-77.124;2023-08-17T06:03:34;1;1;
49656;PMS5003;71194;38.900;-77.124;2023-08-17T06:06:03;4;4;
49656;PMS5003;71194;38.900;-77.124;2023-08-17T06:08:31;3;3;
49656;PMS5003;71194;38.900;-77.124;2023-08-17T06:10:59;3;3;
49656;PMS5003;71194;38.900;-77.124;2023-08-17T06:13:27;7;5;
49656;PMS5003;71194;38.900;-77.124;2023-08-17T06:15:56;3;3;
49656;PMS5003;71194;38.900;-77.124;2023-08-17T06:18:23;2;2;
49656;PMS5003;71194;38.900;-77.124;2023-08-17T06:20:51;2;2;
49656;PMS5003;71194;38.900;-77.124;2023-08-17T06:23:19;3;3;
49656;PMS5003;71194;38.900;-77.124;2023-08-17T06:25:47;3;3;
49656;PMS5003;71194;38.900;-77.124;2023-08-17T06:28:15;3;3;
49656;PMS5003;71194;38.900;-77.124;2023-08-17T06:30:43;2;2;
49656;PMS5003;71194;38.900;-77.124;2023-08-17T06:33:11;2;2;
49656;PMS5003;71194;38.900;-77.124;2023-08-17T06:35:39;4;4;
49656;PMS5003;71194;38.900;-77.124;2023-08-17T06:38:07;6;4;
49656;PMS5003;71194;38.900;-77.124;2023-08-17T06:40:35;4;4;
49656;PMS5003;71194;38.900;-77.124;2023-08-17T06:43:03;3;3;
49656;PMS5003;71194;38.900;-77.124;2023-08-17T06:45:31;4;4;
49656;PMS5003;71194;38.900;-77.124;2023-08-17T06:47:59;4;3;
49656;PMS5003;71194;38.900;-77.124;2023-08-17T06:50:27;4;3;
49656;PMS5003;71194;38.900;-77.124;2023-08-17T06:52:54;3;3;
49656;PMS5003;71194;38.900;-77.124;2023-08-17T06:55:22;3;3;
49656;PMS5003;71194;38.900;-77.124;2023-08-17T06:57:50;5;5;
49656;PMS5003;71194;38.900;-77.124;2023-08-17T07:00:18;4;4;
49656;PMS5003;71194;38.900;-77.124;2023-08-17T07:02:46;6;6;
49656;PMS5003;71194;38.900;-77.124;2023-08-17T07:05:15;4;4;
49656;PMS5003;71194;38.900;-77.124;2023-08-17T07:07:44;7;5;
49656;PMS5003;71194;38.900;-77.124;2023-08-17T07:10:11;6;6;
49656;PMS5003;71194;38.900;-77.124;2023-08-17T07:12:39;7;6;
49656;PMS5003;71194;38.900;-77.124;2023-08-17T07:15:07;8;7;
49656;PMS5003;71194;38.900;-77.124;2023-08-17T07:17:37;5;5;
49656;PMS5003;71194;38.900;-77.124;2023-08-17T07:20:05;6;6;
49656;PMS5003;71194;38.900;-77.124;2023-08-17T07:22:34;5;5;
49656;PMS5003;71194;38.900;-77.124;2023-08-17T07:25:01;5;5;
49656;PMS5003;71194;38.900;-77.124;2023-08-17T07:27:29;4;3;
49656;PMS5003;71194;38.900;-77.124;2023-08-17T07:29:57;5;5;
49656;PMS5003;71194;38.900;-77.124;2023-08-17T07:32:25;3;3;
49656;PMS5003;71194;38.900;-77.124;2023-08-17T07:34:53;5;5;
49656;PMS5003;71194;38.900;-77.124;2023-08-17T07:37:21;4;4;
49656;PMS5003;71194;38.900;-77.124;2023-08-17T07:39:49;5;5;
49656;PMS5003;71194;38.900;-77.124;2023-08-17T07:42:17;7;6;
49656;PMS5003;71194;38.900;-77.124;2023-08-17T07:44:45;4;4;
49656;PMS5003;71194;38.900;-77.124;2023-08-17T07:47:13;3;3;
49656;PMS5003;71194;38.900;-77.124;2023-08-17T07:49:41;5;4;
49656;PMS5003;71194;38.900;-77.124;2023-08-17T07:52:09;6;5;
49656;PMS5003;71194;38.900;-77.124;2023-08-17T07:54:37;7;6;
49656;PMS5003;71194;38.900;-77.124;2023-08-17T07:57:04;9;6;
49656;PMS5003;71194;38.900;-77.124;2023-08-17T07:59:33;5;5;
49656;PMS5003;71194;38.900;-77.124;2023-08-17T08:02:00;6;6;
49656;PMS5003;71194;38.900;-77.124;2023-08-17T08:04:29;7;5;
49656;PMS5003;71194;38.900;-77.124;2023-08-17T08:06:56;6;6;
49656;PMS5003;71194;38.900;-77.124;2023-08-17T08:09:24;4;4;
49656;PMS5003;71194;38.900;-77.124;2023-08-17T08:11:52;6;6;
49656;PMS5003;71194;38.900;-77.124;2023-08-17T08:14:20;3;3;
49656;PMS5003;71194;38.900;-77.124;2023-08-17T08:16:48;4;4;
49656;PMS5003;71194;38.900;-77.124;2023-08-17T08:19:16;6;6;
49656;PMS5003;71194;38.900;-77.124;2023-08-17T08:21:44;9;8;
49656;PMS5003;71194;38.900;-77.124;2023-08-17T08:24:12;8;4;
49656;PMS5003;71194;38.900;-77.124;2023-08-17T08:26:40;5;5;
49656;PMS5003;71194;38.900;-77.124;2023-08-17T08:29:08;4;3;
49656;PMS5003;71194;38.900;-77.124;2023-08-17T08:31:36;5;4;
49656;PMS5003;71194;38.900;-77.124;2023-08-17T08:34:04;4;4;
49656;PMS5003;71194;38.900;-77.124;2023-08-17T08:36:32;5;5;
49656;PMS5003;71194;38.900;-77.124;2023-08-17T08:39:00;5;4;
49656;PMS5003;71194;38.900;-77.124;2023-08-17T08:41:28;5;5;
49656;PMS5003;71194;38.900;-77.124;2023-08-17T08:43:57;6;4;
49656;PMS5003;71194;38.900;-77.124;2023-08-17T08:46:26;6;4;
49656;PMS5003;71194;38.900;-77.124;2023-08-17T08:48:55;6;5;
49656;PMS5003;71194;38.900;-77.124;2023-08-17T08:51:25;5;5;
49656;PMS5003;71194;38.900;-77.124;2023-08-17T08:53:57;6;5;
49656;PMS5003;71194;38.900;-77.124;2023-08-17T08:56:29;4;2;
49656;PMS5003;71194;38.900;-77.124;2023-08-17T08:59:01;3;3;
49656;PMS5003;71194;38.900;-77.124;2023-08-17T09:01:30;6;5;
49656;PMS5003;71194;38.900;-77.124;2023-08-17T09:03:59;4;4;
49656;PMS5003;71194;38.900;-77.124;2023-08-17T09:06:27;6;3;
49656;PMS5003;71194;38.900;-77.124;2023-08-17T09:08:57;4;4;
49656;PMS5003;71194;38.900;-77.124;2023-08-17T09:11:25;4;4;
49656;PMS5003;71194;38.900;-77.124;2023-08-17T09:13:53;6;5;
49656;PMS5003;71194;38.900;-77.124;2023-08-17T09:16:21;5;5;
49656;PMS5003;71194;38.900;-77.124;2023-08-17T09:18:50;8;4;
49656;PMS5003;71194;38.900;-77.124;2023-08-17T09:21:20;6;4;
49656;PMS5003;71194;38.900;-77.124;2023-08-17T09:23:50;6;6;
49656;PMS5003;71194;38.900;-77.124;2023-08-17T09:26:19;4;4;
49656;PMS5003;71194;38.900;-77.124;2023-08-17T09:28:48;4;4;
49656;PMS5003;71194;38.900;-77.124;2023-08-17T09:31:18;1;1;
49656;PMS5003;71194;38.900;-77.124;2023-08-17T09:33:49;4;4;
49656;PMS5003;71194;38.900;-77.124;2023-08-17T09:36:20;4;4;
49656;PMS5003;71194;38.900;-77.124;2023-08-17T09:38:48;4;4;
49656;PMS5003;71194;38.900;-77.124;2023-08-17T09:41:17;2;2;
49656;PMS5003;71194;38.900;-77.124;2023-08-17T09:43:45;7;4;
49656;PMS5003;71194;38.900;-77.124;2023-08-17T09:46:13;8;5;
49656;PMS5003;71194;38.900;-77.124;2023-08-17T09:48:43;4;4;
49656;PMS5003;71194;38.900;-77.124;2023-08-17T09:51:14;4;4;
49656;PMS5003;71194;38.900;-77.124;2023-08-17T09:53:43;4;4;
49656;PMS5003;71194;38.900;-77.124;2023-08-17T09:56:11;5;4;
49656;PMS5003;71194;38.900;-77.124;2023-08-17T09:58:39;6;4;
49656;PMS5003;71194;38.900;-77.124;2023-08-17T10:01:07;7;5;
49656;PMS5003;71194;38.900;-77.124;2023-08-17T10:03:36;6;6;
49656;PMS5003;71194;38.900;-77.124;2023-08-17T10:06:09;5;4;
49656;PMS5003;71194;38.900;-77.124;2023-08-17T10:08:44;5;5;
49656;PMS5003;71194;38.900;-77.124;2023-08-17T10:11:15;7;7;
49656;PMS5003;71194;38.900;-77.124;2023-08-17T10:13:48;5;5;
49656;PMS5003;71194;38.900;-77.124;2023-08-17T10:16:22;4;4;
49656;PMS5003;71194;38.900;-77.124;2023-08-17T10:18:54;5;5;
49656;PMS5003;71194;38.900;-77.124;2023-08-17T10:21:27;5;5;
49656;PMS5003;71194;38.900;-77.124;2023-08-17T10:23:58;5;5;
49656;PMS5003;71194;38.900;-77.124;2023-08-17T10:26:27;4;4;
49656;PMS5003;71194;38.900;-77.124;2023-08-17T10:28:56;4;4;
49656;PMS5003;71194;38.900;-77.124;2023-08-17T10:31:24;11;11;
49656;PMS5003;71194;38.900;-77.124;2023-08-17T10:33:53;19;17;
49656;PMS5003;71194;38.900;-77.124;2023-08-17T10:36:22;16;13;
49656;PMS5003;71194;38.900;-77.124;2023-08-17T10:39:17;9;9;
49656;PMS5003;71194;38.900;-77.124;2023-08-17T10:41:47;8;8;
49656;PMS5003;71194;38.900;-77.124;2023-08-17T10:44:17;10;6;
49656;PMS5003;71194;38.900;-77.124;2023-08-17T10:46:45;6;5;
49656;PMS5003;71194;38.900;-77.124;2023-08-17T10:49:24;8;5;
49656;PMS5003;71194;38.900;-77.124;2023-08-17T10:52:00;6;6;
49656;PMS5003;71194;38.900;-77.124;2023-08-17T10:54:36;6;5;
49656;PMS5003;71194;38.900;-77.124;2023-08-17T10:57:36;5;5;
49656;PMS5003;71194;38.900;-77.124;2023-08-17T11:00:06;4;4;
49656;PMS5003;71194;38.900;-77.124;2023-08-17T11:02:40;6;6;
49656;PMS5003;71194;38.900;-77.124;2023-08-17T11:05:09;6;6;
49656;PMS5003;71194;38.900;-77.124;2023-08-17T11:07:39;10;7;
49656;PMS5003;71194;38.900;-77.124;2023-08-17T11:10:11;8;8;
49656;PMS5003;71194;38.900;-77.124;2023-08-17T11:12:53;8;5;
49656;PMS5003;71194;38.900;-77.124;2023-08-17T11:15:21;6;6;
49656;PMS5003;71194;38.900;-77.124;2023-08-17T11:17:50;4;4;
49656;PMS5003;71194;38.900;-77.124;2023-08-17T11:20:18;3;3;
49656;PMS5003;71194;38.900;-77.124;2023-08-17T11:22:46;2;2;
49656;PMS5003;71194;38.900;-77.124;2023-08-17T11:25:14;6;4;
49656;PMS5003;71194;38.900;-77.124;2023-08-17T11:27:43;4;4;
49656;PMS5003;71194;38.900;-77.124;2023-08-17T11:30:11;4;4;
49656;PMS5003;71194;38.900;-77.124;2023-08-17T11:32:39;6;5;
49656;PMS5003;71194;38.900;-77.124;2023-08-17T11:35:08;4;4;
49656;PMS5003;71194;38.900;-77.124;2023-08-17T11:37:35;6;4;
49656;PMS5003;71194;38.900;-77.124;2023-08-17T11:40:04;5;4;
49656;PMS5003;71194;38.900;-77.124;2023-08-17T11:42:32;5;5;
49656;PMS5003;71194;38.900;-77.124;2023-08-17T11:45:00;4;4;
49656;PMS5003;71194;38.900;-77.124;2023-08-17T11:47:28;5;5;
49656;PMS5003;71194;38.900;-77.124;2023-08-17T11:49:59;5;5;
49656;PMS5003;71194;38.900;-77.124;2023-08-17T11:52:27;6;6;
49656;PMS5003;71194;38.900;-77.124;2023-08-17T11:54:56;5;5;
49656;PMS5003;71194;38.900;-77.124;2023-08-17T11:57:24;6;6;
49656;PMS5003;71194;38.900;-77.124;2023-08-17T11:59:52;5;5;
49656;PMS5003;71194;38.900;-77.124;2023-08-17T12:02:23;5;5;
49656;PMS5003;71194;38.900;-77.124;2023-08-17T12:04:51;5;5;
49656;PMS5003;71194;38.900;-77.124;2023-08-17T12:07:21;5;4;
49656;PMS5003;71194;38.900;-77.124;2023-08-17T12:09:50;9;6;
49656;PMS5003;71194;38.900;-77.124;2023-08-17T12:12:21;6;6;
49656;PMS5003;71194;38.900;-77.124;2023-08-17T12:14:48;4;4;
49656;PMS5003;71194;38.900;-77.124;2023-08-17T12:17:17;18;15;
49656;PMS5003;71194;38.900;-77.124;2023-08-17T12:19:48;14;13;
49656;PMS5003;71194;38.900;-77.124;2023-08-17T12:22:22;12;10;
49656;PMS5003;71194;38.900;-77.124;2023-08-17T12:24:52;13;10;
49656;PMS5003;71194;38.900;-77.124;2023-08-17T12:27:21;7;7;
49656;PMS5003;71194;38.900;-77.124;2023-08-17T12:29:50;8;7;
49656;PMS5003;71194;38.900;-77.124;2023-08-17T12:32:19;5;5;
49656;PMS5003;71194;38.900;-77.124;2023-08-17T12:34:47;6;5;
49656;PMS5003;71194;38.900;-77.124;2023-08-17T12:37:18;5;5;
49656;PMS5003;71194;38.900;-77.124;2023-08-17T12:39:47;7;5;
49656;PMS5003;71194;38.900;-77.124;2023-08-17T12:42:15;5;5;
49656;PMS5003;71194;38.900;-77.124;2023-08-17T12:44:43;6;6;
49656;PMS5003;71194;38.900;-77.124;2023-08-17T12:47:11;6;6;
49656;PMS5003;71194;38.900;-77.124;2023-08-17T12:49:39;7;6;
49656;PMS5003;71194;38.900;-77.124;2023-08-17T12:52:07;6;6;
49656;PMS5003;71194;38.900;-77.124;2023-08-17T12:54:36;6;6;
49656;PMS5003;71194;38.900;-77.124;2023-08-17T12:57:04;6;6;
49656;PMS5003;71194;38.900;-77.124;2023-08-17T12:59:32;9;7;
49656;PMS5003;71194;38.900;-77.124;2023-08-17T13:02:00;10;10;
49656;PMS5003;71194;38.900;-77.124;2023-08-17T13:04:28;16;15;
49656;PMS5003;71194;38.900;-77.124;2023-08-17T13:06:56;16;16;
49656;PMS5003;71194;38.900;-77.124;2023-08-17T13:09:23;12;12;
49656;PMS5003;71194;38.900;-77.124;2023-08-17T13:11:51;10;9;
49656;PMS5003;71194;38.900;-77.124;2023-08-17T13:14:19;9;9;
49656;PMS5003;71194;38.900;-77.124;2023-08-17T13:16:47;10;9;
49656;PMS5003;71194;38.900;-77.124;2023-08-17T13:19:15;9;7;
49656;PMS5003;71194;38.900;-77.124;2023-08-17T13:21:42;7;7;
49656;PMS5003;71194;38.900;-77.124;2023-08-17T13:24:10;8;7;
49656;PMS5003;71194;38.900;-77.124;2023-08-17T13:26:39;7;7;
49656;PMS5003;71194;38.900;-77.124;2023-08-17T13:29:07;23;22;
49656;PMS5003;71194;38.900;-77.124;2023-08-17T13:31:35;20;15;
49656;PMS5003;71194;38.900;-77.124;2023-08-17T13:34:03;18;14;
49656;PMS5003;71194;38.900;-77.124;2023-08-17T13:36:31;12;9;
49656;PMS5003;71194;38.900;-77.124;2023-08-17T13:38:59;11;11;
49656;PMS5003;71194;38.900;-77.124;2023-08-17T13:41:26;11;11;
49656;PMS5003;71194;38.900;-77.124;2023-08-17T13:43:54;7;7;
49656;PMS5003;71194;38.900;-77.124;2023-08-17T13:46:22;7;7;
49656;PMS5003;71194;38.900;-77.124;2023-08-17T13:48:50;7;7;
49656;PMS5003;71194;38.900;-77.124;2023-08-17T13:51:18;8;8;
49656;PMS5003;71194;38.900;-77.124;2023-08-17T13:53:46;8;8;
49656;PMS5003;71194;38.900;-77.124;2023-08-17T13:56:15;7;7;
49656;PMS5003;71194;38.900;-77.124;2023-08-17T13:58:44;9;9;
49656;PMS5003;71194;38.900;-77.124;2023-08-17T14:01:12;11;9;
49656;PMS5003;71194;38.900;-77.124;2023-08-17T14:03:39;13;10;
49656;PMS5003;71194;38.900;-77.124;2023-08-17T14:06:07;12;10;
49656;PMS5003;71194;38.900;-77.124;2023-08-17T14:08:35;12;12;
49656;PMS5003;71194;38.900;-77.124;2023-08-17T14:11:03;12;10;
49656;PMS5003;71194;38.900;-77.124;2023-08-17T14:13:31;9;9;
49656;PMS5003;71194;38.900;-77.124;2023-08-17T14:15:58;10;10;
49656;PMS5003;71194;38.900;-77.124;2023-08-17T14:18:26;11;11;
49656;PMS5003;71194;38.900;-77.124;2023-08-17T14:20:54;10;10;
49656;PMS5003;71194;38.900;-77.124;2023-08-17T14:23:22;7;7;
49656;PMS5003;71194;38.900;-77.124;2023-08-17T14:25:50;8;8;
49656;PMS5003;71194;38.900;-77.124;2023-08-17T14:28:18;9;8;
49656;PMS5003;71194;38.900;-77.124;2023-08-17T14:30:45;13;13;
49656;PMS5003;71194;38.900;-77.124;2023-08-17T14:33:13;10;10;
49656;PMS5003;71194;38.900;-77.124;2023-08-17T14:35:41;11;10;
49656;PMS5003;71194;38.900;-77.124;2023-08-17T14:38:09;11;11;
49656;PMS5003;71194;38.900;-77.124;2023-08-17T14:40:37;9;8;
49656;PMS5003;71194;38.900;-77.124;2023-08-17T14:43:05;11;10;
49656;PMS5003;71194;38.900;-77.124;2023-08-17T14:45:33;12;12;
49656;PMS5003;71194;38.900;-77.124;2023-08-17T14:48:01;11;10;
49656;PMS5003;71194;38.900;-77.124;2023-08-17T14:50:29;12;12;
49656;PMS5003;71194;38.900;-77.124;2023-08-17T14:52:57;10;9;
49656;PMS5003;71194;38.900;-77.124;2023-08-17T14:55:25;9;9;
49656;PMS5003;71194;38.900;-77.124;2023-08-17T14:57:53;8;8;
49656;PMS5003;71194;38.900;-77.124;2023-08-17T15:00:22;11;8;
49656;PMS5003;71194;38.900;-77.124;2023-08-17T15:02:51;10;10;
49656;PMS5003;71194;38.900;-77.124;2023-08-17T15:05:23;15;15;
49656;PMS5003;71194;38.900;-77.124;2023-08-17T15:07:51;14;12;
49656;PMS5003;71194;38.900;-77.124;2023-08-17T15:10:19;11;10;
49656;PMS5003;71194;38.900;-77.124;2023-08-17T15:12:47;10;9;
49656;PMS5003;71194;38.900;-77.124;2023-08-17T15:15:15;10;9;
49656;PMS5003;71194;38.900;-77.124;2023-08-17T15:17:43;10;9;
49656;PMS5003;71194;38.900;-77.124;2023-08-17T15:20:11;11;8;
49656;PMS5003;71194;38.900;-77.124;2023-08-17T15:22:39;11;11;
49656;PMS5003;71194;38.900;-77.124;2023-08-17T15:25:07;10;10;
49656;PMS5003;71194;38.900;-77.124;2023-08-17T15:27:35;9;9;
49656;PMS5003;71194;38.900;-77.124;2023-08-17T15:30:03;10;9;
49656;PMS5003;71194;38.900;-77.124;2023-08-17T15:32:31;9;7;
49656;PMS5003;71194;38.900;-77.124;2023-08-17T15:34:59;8;8;
49656;PMS5003;71194;38.900;-77.124;2023-08-17T15:37:27;8;8;
49656;PMS5003;71194;38.900;-77.124;2023-08-17T15:39:55;13;11;
49656;PMS5003;71194;38.900;-77.124;2023-08-17T15:42:23;8;8;
49656;PMS5003;71194;38.900;-77.124;2023-08-17T15:44:51;12;10;
49656;PMS5003;71194;38.900;-77.124;2023-08-17T15:47:18;13;12;
49656;PMS5003;71194;38.900;-77.124;2023-08-17T15:49:46;11;10;
49656;PMS5003;71194;38.900;-77.124;2023-08-17T15:52:14;11;10;
49656;PMS5003;71194;38.900;-77.124;2023-08-17T15:54:43;12;10;
49656;PMS5003;71194;38.900;-77.124;2023-08-17T15:57:11;9;9;
49656;PMS5003;71194;38.900;-77.124;2023-08-17T15:59:39;10;10;
49656;PMS5003;71194;38.900;-77.124;2023-08-17T16:02:07;7;7;
49656;PMS5003;71194;38.900;-77.124;2023-08-17T16:04:35;8;8;
49656;PMS5003;71194;38.900;-77.124;2023-08-17T16:07:03;5;5;
49656;PMS5003;71194;38.900;-77.124;2023-08-17T16:09:31;7;7;
49656;PMS5003;71194;38.900;-77.124;2023-08-17T16:11:59;9;9;
49656;PMS5003;71194;38.900;-77.124;2023-08-17T16:14:26;6;6;
49656;PMS5003;71194;38.900;-77.124;2023-08-17T16:16:54;15;14;
49656;PMS5003;71194;38.900;-77.124;2023-08-17T16:19:23;10;8;
49656;PMS5003;71194;38.900;-77.124;2023-08-17T16:21:51;11;11;
49656;PMS5003;71194;38.900;-77.124;2023-08-17T16:24:19;11;10;